sensor_id;sensor_type;location;lat;lon;timestamp;temperature;humidity
75517;DHT22;64097;52.548;13.406;2022-12-20T06:01:38;9.70;67.60
75517;DHT22;64097;52.548;13.406;2022-12-20T06:04:03;9.70;67.50
75517;DHT22;64097;52.548;13.406;2022-12-20T06:06:29;9.80;67.50
75517;DHT22;64097;52.548;13.406;2022-12-20T06:08:55;9.80;67.40
75517;DHT22;64097;52.548;13.406;2022-12-20T06:11:21;9.80;67.30
75517;DHT22;64097;52.548;13.406;2022-12-20T06:13:47;9.80;67.40
75517;DHT22;64097;52.548;13.406;2022-12-20T06:16:13;9.90;67.10
75517;DHT22;64097;52.548;13.406;2022-12-20T06:18:39;9.90;67.20
75517;DHT22;64097;52.548;13.406;2022-12-20T06:21:05;9.90;67.40
75517;DHT22;64097;52.548;13.406;2022-12-20T06:23:31;9.90;67.60
75517;DHT22;64097;52.548;13.406;2022-12-20T06:25:56;9.90;67.60
75517;DHT22;64097;52.548;13.406;2022-12-20T06:28:22;10.00;67.60
75517;DHT22;64097;52.548;13.406;2022-12-20T06:30:54;10.00;67.70
75517;DHT22;64097;52.548;13.406;2022-12-20T06:33:21;10.00;67.70
75517;DHT22;64097;52.548;13.406;2022-12-20T06:35:48;10.10;67.80
75517;DHT22;64097;52.548;13.406;2022-12-20T06:38:14;10.10;67.80
75517;DHT22;64097;52.548;13.406;2022-12-20T06:40:40;10.10;67.90
75517;DHT22;64097;52.548;13.406;2022-12-20T06:43:06;10.10;68.00
75517;DHT22;64097;52.548;13.406;2022-12-20T06:45:32;10.10;68.00
75517;DHT22;64097;52.548;13.406;2022-12-20T06:47:57;10.10;68.10
75517;DHT22;64097;52.548;13.406;2022-12-20T06:50:24;10.10;68.30
75517;DHT22;64097;52.548;13.406;2022-12-20T06:52:50;10.20;68.40
75517;DHT22;64097;52.548;13.406;2022-12-20T06:55:16;10.20;68.40
75517;DHT22;64097;52.548;13.406;2022-12-20T06:57:41;10.10;68.50
75517;DHT22;64097;52.548;13.406;2022-12-20T07:00:08;10.20;68.50
75517;DHT22;64097;52.548;13.406;2022-12-20T07:02:37;10.20;68.50
75517;DHT22;64097;52.548;13.406;2022-12-20T07:05:03;10.20;68.60
75517;DHT22;64097;52.548;13.406;2022-12-20T07:07:29;10.20;68.80
75517;DHT22;64097;52.548;13.406;2022-12-20T07:09:55;10.20;68.90
75517;DHT22;64097;52.548;13.406;2022-12-20T07:12:21;10.10;69.00
75517;DHT22;64097;52.548;13.406;2022-12-20T07:14:47;10.20;69.20
75517;DHT22;64097;52.548;13.406;2022-12-20T07:17:13;10.20;69.40
75517;DHT22;64097;52.548;13.406;2022-12-20T07:19:40;10.20;69.40
75517;DHT22;64097;52.548;13.406;2022-12-20T07:22:06;10.20;69.40
75517;DHT22;64097;52.548;13.406;2022-12-20T07:24:32;10.20;69.40
75517;DHT22;64097;52.548;13.406;2022-12-20T07:26:59;10.20;69.40
75517;DHT22;64097;52.548;13.406;2022-12-20T07:29:25;10.20;69.40
75517;DHT22;64097;52.548;13.406;2022-12-20T07:31:51;10.30;70.40
75517;DHT22;64097;52.548;13.406;2022-12-20T07:34:17;10.20;69.40
75517;DHT22;64097;52.548;13.406;2022-12-20T07:36:43;10.30;69.50
75517;DHT22;64097;52.548;13.406;2022-12-20T07:39:09;10.30;69.60
75517;DHT22;64097;52.548;13.406;2022-12-20T07:41:35;10.30;69.60
75517;DHT22;64097;52.548;13.406;2022-12-20T07:44:01;10.30;69.80
75517;DHT22;64097;52.548;13.406;2022-12-20T07:46:27;10.30;69.90
75517;DHT22;64097;52.548;13.406;2022-12-20T07:48:53;10.30;70.00
75517;DHT22;64097;52.548;13.406;2022-12-20T07:51:32;10.30;70.00
75517;DHT22;64097;52.548;13.406;2022-12-20T07:54:29;10.30;70.20
75517;DHT22;64097;52.548;13.406;2022-12-20T07:57:02;10.30;70.20
75517;DHT22;64097;52.548;13.406;2022-12-20T07:59:40;10.40;70.30
75517;DHT22;64097;52.548;13.406;2022-12-20T08:02:14;10.40;70.50
75517;DHT22;64097;52.548;13.406;2022-12-20T08:04:42;10.40;70.60
75517;DHT22;64097;52.548;13.406;2022-12-20T08:07:08;10.40;70.80
75517;DHT22;64097;52.548;13.406;2022-12-20T08:09:38;10.40;70.80
75517;DHT22;64097;52.548;13.406;2022-12-20T08:12:06;10.40;70.90
75517;DHT22;64097;52.548;13.406;2022-12-20T08:14:33;10.40;71.00
75517;DHT22;64097;52.548;13.406;2022-12-20T08:16:59;10.40;71.10
75517;DHT22;64097;52.548;13.406;2022-12-20T08:19:25;10.40;71.30
75517;DHT22;64097;52.548;13.406;2022-12-20T08:21:50;10.40;71.20
75517;DHT22;64097;52.548;13.406;2022-12-20T08:24:16;10.40;71.40
75517;DHT22;64097;52.548;13.406;2022-12-20T08:26:41;10.40;71.30
75517;DHT22;64097;52.548;13.406;2022-12-20T08:29:08;10.40;71.30
75517;DHT22;64097;52.548;13.406;2022-12-20T08:31:37;10.50;71.50
75517;DHT22;64097;52.548;13.406;2022-12-20T08:34:03;10.40;71.60
75517;DHT22;64097;52.548;13.406;2022-12-20T08:36:29;10.50;71.70
75517;DHT22;64097;52.548;13.406;2022-12-20T08:38:55;10.50;71.70
75517;DHT22;64097;52.548;13.406;2022-12-20T08:41:21;10.50;71.90
75517;DHT22;64097;52.548;13.406;2022-12-20T08:43:46;10.50;71.90
75517;DHT22;64097;52.548;13.406;2022-12-20T08:46:12;10.50;72.00
75517;DHT22;64097;52.548;13.406;2022-12-20T08:48:38;10.50;72.00
75517;DHT22;64097;52.548;13.406;2022-12-20T08:51:07;10.50;72.20
75517;DHT22;64097;52.548;13.406;2022-12-20T08:53:34;10.50;72.20
75517;DHT22;64097;52.548;13.406;2022-12-20T08:56:11;10.60;72.20
75517;DHT22;64097;52.548;13.406;2022-12-20T08:58:38;10.50;72.90
75517;DHT22;64097;52.548;13.406;2022-12-20T09:01:10;10.60;72.30
75517;DHT22;64097;52.548;13.406;2022-12-20T09:03:37;10.60;72.30
75517;DHT22;64097;52.548;13.406;2022-12-20T09:06:12;10.70;72.20
75517;DHT22;64097;52.548;13.406;2022-12-20T09:08:38;10.70;72.30
75517;DHT22;64097;52.548;13.406;2022-12-20T09:11:05;10.70;72.20
75517;DHT22;64097;52.548;13.406;2022-12-20T09:13:31;10.70;72.20
75517;DHT22;64097;52.548;13.406;2022-12-20T09:16:02;10.70;72.20
75517;DHT22;64097;52.548;13.406;2022-12-20T09:18:29;10.80;72.20
75517;DHT22;64097;52.548;13.406;2022-12-20T09:20:59;10.80;72.30
75517;DHT22;64097;52.548;13.406;2022-12-20T09:23:26;10.80;72.10
75517;DHT22;64097;52.548;13.406;2022-12-20T09:25:51;10.90;72.20
75517;DHT22;64097;52.548;13.406;2022-12-20T09:28:17;10.90;72.10
75517;DHT22;64097;52.548;13.406;2022-12-20T09:30:43;10.90;72.10
75517;DHT22;64097;52.548;13.406;2022-12-20T09:33:08;11.00;72.20
75517;DHT22;64097;52.548;13.406;2022-12-20T09:35:34;11.00;72.20
75517;DHT22;64097;52.548;13.406;2022-12-20T09:38:00;11.00;72.20
75517;DHT22;64097;52.548;13.406;2022-12-20T09:40:29;11.10;72.20
75517;DHT22;64097;52.548;13.406;2022-12-20T09:42:56;11.10;72.00
75517;DHT22;64097;52.548;13.406;2022-12-20T09:45:28;11.20;72.00
75517;DHT22;64097;52.548;13.406;2022-12-20T09:47:55;11.20;71.80
75517;DHT22;64097;52.548;13.406;2022-12-20T09:56:00;11.30;71.50
75517;DHT22;64097;52.548;13.406;2022-12-20T10:01:26;11.40;71.30
75517;DHT22;64097;52.548;13.406;2022-12-20T10:03:53;11.50;71.50
75517;DHT22;64097;52.548;13.406;2022-12-20T10:09:01;11.50;71.10
75517;DHT22;64097;52.548;13.406;2022-12-20T10:16:57;11.60;70.90
75517;DHT22;64097;52.548;13.406;2022-12-20T10:22:28;11.70;70.90
75517;DHT22;64097;52.548;13.406;2022-12-20T10:25:18;11.70;70.90
75517;DHT22;64097;52.548;13.406;2022-12-20T10:27:46;11.80;70.80
75517;DHT22;64097;52.548;13.406;2022-12-20T10:30:15;11.80;70.70
75517;DHT22;64097;52.548;13.406;2022-12-20T10:32:45;11.80;70.70
75517;DHT22;64097;52.548;13.406;2022-12-20T10:38:10;11.90;70.50
75517;DHT22;64097;52.548;13.406;2022-12-20T10:40:47;11.90;70.30
75517;DHT22;64097;52.548;13.406;2022-12-20T10:43:21;12.00;70.20
75517;DHT22;64097;52.548;13.406;2022-12-20T10:46:05;12.00;70.20
75517;DHT22;64097;52.548;13.406;2022-12-20T10:48:36;12.00;70.20
75517;DHT22;64097;52.548;13.406;2022-12-20T10:51:13;12.00;70.20
75517;DHT22;64097;52.548;13.406;2022-12-20T10:58:58;12.10;69.80
75517;DHT22;64097;52.548;13.406;2022-12-20T11:01:30;12.10;70.00
75517;DHT22;64097;52.548;13.406;2022-12-20T11:04:06;12.10;70.00
75517;DHT22;64097;52.548;13.406;2022-12-20T11:14:35;12.10;69.70
75517;DHT22;64097;52.548;13.406;2022-12-20T11:28:09;12.20;69.20
75517;DHT22;64097;52.548;13.406;2022-12-20T11:31:02;12.30;69.30
75517;DHT22;64097;52.548;13.406;2022-12-20T11:33:48;12.30;69.10
75517;DHT22;64097;52.548;13.406;2022-12-20T11:41:49;12.40;68.90
75517;DHT22;64097;52.548;13.406;2022-12-20T11:44:32;12.40;68.90
75517;DHT22;64097;52.548;13.406;2022-12-20T11:52:59;12.50;68.70
75517;DHT22;64097;52.548;13.406;2022-12-20T11:55:38;12.40;68.50
75517;DHT22;64097;52.548;13.406;2022-12-20T11:58:31;12.50;68.40
75517;DHT22;64097;52.548;13.406;2022-12-20T12:01:02;12.50;68.20
75517;DHT22;64097;52.548;13.406;2022-12-20T12:03:52;12.50;68.10
75517;DHT22;64097;52.548;13.406;2022-12-20T12:06:32;12.50;68.00
75517;DHT22;64097;52.548;13.406;2022-12-20T12:09:10;12.50;67.90
75517;DHT22;64097;52.548;13.406;2022-12-20T12:11:42;12.60;68.00
75517;DHT22;64097;52.548;13.406;2022-12-20T12:14:29;12.60;68.00
75517;DHT22;64097;52.548;13.406;2022-12-20T12:17:08;12.60;67.80
75517;DHT22;64097;52.548;13.406;2022-12-20T12:19:36;12.60;67.60
75517;DHT22;64097;52.548;13.406;2022-12-20T12:22:10;12.60;67.60
75517;DHT22;64097;52.548;13.406;2022-12-20T12:24:50;12.60;67.40
75517;DHT22;64097;52.548;13.406;2022-12-20T12:27:25;12.60;67.30
75517;DHT22;64097;52.548;13.406;2022-12-20T12:29:53;12.60;67.40
75517;DHT22;64097;52.548;13.406;2022-12-20T12:32:38;12.70;67.40
75517;DHT22;64097;52.548;13.406;2022-12-20T12:35:56;12.60;67.30
75517;DHT22;64097;52.548;13.406;2022-12-20T12:38:43;12.70;67.40
75517;DHT22;64097;52.548;13.406;2022-12-20T12:47:05;12.60;67.30
75517;DHT22;64097;52.548;13.406;2022-12-20T12:49:36;12.70;67.40
75517;DHT22;64097;52.548;13.406;2022-12-20T12:52:04;12.70;67.50
75517;DHT22;64097;52.548;13.406;2022-12-20T12:54:36;12.70;67.60
75517;DHT22;64097;52.548;13.406;2022-12-20T13:04:59;12.70;67.10
75517;DHT22;64097;52.548;13.406;2022-12-20T13:09:57;12.70;67.00
75517;DHT22;64097;52.548;13.406;2022-12-20T13:12:54;12.70;67.00
75517;DHT22;64097;52.548;13.406;2022-12-20T13:17:56;12.70;67.00
75517;DHT22;64097;52.548;13.406;2022-12-20T13:20:23;12.70;66.80
75517;DHT22;64097;52.548;13.406;2022-12-20T13:33:45;12.70;66.40
75517;DHT22;64097;52.548;13.406;2022-12-20T13:43:59;12.60;66.00
75517;DHT22;64097;52.548;13.406;2022-12-20T13:46:46;12.60;65.80
75517;DHT22;64097;52.548;13.406;2022-12-20T13:49:22;12.60;65.70
75517;DHT22;64097;52.548;13.406;2022-12-20T13:54:42;12.60;65.70
75517;DHT22;64097;52.548;13.406;2022-12-20T13:57:14;12.60;65.40
75517;DHT22;64097;52.548;13.406;2022-12-20T13:59:47;12.60;65.20
